createdAt,value
2023-05-19T00:03:52.613Z,71.99
2023-05-19T00:08:57.670Z,72.06
2023-05-19T00:13:59.457Z,72.24
2023-05-19T00:19:00.211Z,72.31
2023-05-19T00:24:00.681Z,72.52
2023-05-19T00:28:59.700Z,72.82
2023-05-19T00:33:58.789Z,73.02
2023-05-19T00:38:57.846Z,73.35
2023-05-19T00:43:57.358Z,73.23
2023-05-19T00:48:56.684Z,73.50
2023-05-19T00:53:56.445Z,73.63
2023-05-19T00:58:56.793Z,74.40
2023-05-19T01:03:59.107Z,74.32
2023-05-19T01:08:59.284Z,74.22
2023-05-19T01:13:58.973Z,73.90
2023-05-19T01:19:12.426Z,74.78
2023-05-19T01:24:35.622Z,74.86
2023-05-19T01:29:56.201Z,75.18
2023-05-19T01:34:57.257Z,75.09
2023-05-19T01:39:57.286Z,75.15
2023-05-19T01:44:57.710Z,75.38
2023-05-19T01:49:58.806Z,75.42
2023-05-19T01:54:59.133Z,76.32
2023-05-19T02:00:17.792Z,75.99
2023-05-19T02:05:32.857Z,75.97
2023-05-19T02:10:38.044Z,76.32
2023-05-19T02:15:46.497Z,75.78
2023-05-19T02:20:46.509Z,76.48
2023-05-19T02:25:46.344Z,76.78
2023-05-19T02:30:45.801Z,76.76
2023-05-19T02:35:45.580Z,77.76
2023-05-19T02:40:47.074Z,78.59
2023-05-19T02:45:46.506Z,78.85
2023-05-19T02:50:45.972Z,78.81
2023-05-19T02:55:45.617Z,78.86
2023-05-19T03:00:45.603Z,78.76
2023-05-19T03:05:45.101Z,78.74
2023-05-19T03:10:44.562Z,78.86
2023-05-19T03:15:45.139Z,79.86
2023-05-19T03:20:44.948Z,78.32
2023-05-19T03:25:44.308Z,78.89
2023-05-19T03:30:44.165Z,79.12
2023-05-19T03:35:46.707Z,79.22
2023-05-19T03:40:46.519Z,79.82
2023-05-19T03:45:45.320Z,80.08
2023-05-19T03:51:10.924Z,80.47
2023-05-19T03:56:14.160Z,80.60
2023-05-19T04:01:14.477Z,80.03
2023-05-19T04:06:14.727Z,81.10
2023-05-19T04:11:15.158Z,80.87
2023-05-19T04:16:14.753Z,80.84
2023-05-19T04:21:14.205Z,81.30
2023-05-19T04:26:15.093Z,81.80
2023-05-19T04:31:14.597Z,81.84
2023-05-19T04:36:17.751Z,81.88
2023-05-19T04:41:17.683Z,82.08
2023-05-19T04:46:17.182Z,82.41
2023-05-19T04:51:18.253Z,81.85
2023-05-19T04:56:17.511Z,82.72
2023-05-19T05:01:17.342Z,83.03
2023-05-19T05:06:16.860Z,82.59
2023-05-19T05:11:18.519Z,82.66
2023-05-19T05:16:21.732Z,82.83
2023-05-19T05:21:23.857Z,83.00
2023-05-19T05:26:24.439Z,82.74
2023-05-19T05:31:25.040Z,82.30
2023-05-19T05:36:25.041Z,82.37
2023-05-19T05:41:24.687Z,82.72
2023-05-19T05:46:27.664Z,81.73
2023-05-19T05:51:30.384Z,81.82
2023-05-19T05:56:33.981Z,82.10
2023-05-19T06:01:35.846Z,82.09
2023-05-19T06:06:36.148Z,82.70
2023-05-19T06:11:35.419Z,81.92
2023-05-19T06:16:38.440Z,81.96
2023-05-19T06:21:38.260Z,81.62
2023-05-19T06:26:37.276Z,81.84
2023-05-19T06:31:36.907Z,81.73
2023-05-19T06:36:42.827Z,81.53
2023-05-19T06:41:42.271Z,81.22
2023-05-19T06:46:42.206Z,80.94
2023-05-19T06:51:41.607Z,81.21
2023-05-19T06:56:40.939Z,81.06
2023-05-19T07:01:40.478Z,80.76
2023-05-19T07:06:40.853Z,80.46
2023-05-19T07:11:41.094Z,80.21
2023-05-19T07:16:41.100Z,80.18
2023-05-19T07:21:40.659Z,80.29
2023-05-19T07:26:40.218Z,80.55
2023-05-19T07:31:40.157Z,79.90
2023-05-19T07:36:39.122Z,79.87
2023-05-19T07:41:38.332Z,80.02
2023-05-19T07:46:38.286Z,79.89
2023-05-19T07:51:37.630Z,79.59
2023-05-19T07:56:36.517Z,79.75
2023-05-19T08:01:36.218Z,79.29
2023-05-19T08:06:35.570Z,79.14
2023-05-19T08:11:35.285Z,78.72
2023-05-19T08:16:34.838Z,79.12
2023-05-19T08:21:35.756Z,78.80
2023-05-19T08:26:37.072Z,78.57
2023-05-19T08:31:37.460Z,78.46
2023-05-19T08:36:36.993Z,78.25
2023-05-19T08:41:36.161Z,78.22
2023-05-19T08:46:36.673Z,78.13
2023-05-19T08:51:48.727Z,78.15
2023-05-19T08:56:50.850Z,77.90
2023-05-19T09:01:51.522Z,77.72
2023-05-19T09:06:51.813Z,77.60
2023-05-19T09:11:51.925Z,77.60
2023-05-19T09:16:53.373Z,77.43
2023-05-19T09:22:04.815Z,77.62
2023-05-19T09:27:04.137Z,77.44
2023-05-19T09:32:05.309Z,77.31
2023-05-19T09:37:05.313Z,77.17
2023-05-19T09:42:09.434Z,77.02
2023-05-19T09:47:11.401Z,76.80
2023-05-19T09:52:16.478Z,76.81
2023-05-19T09:57:16.270Z,76.72
2023-05-19T10:02:21.834Z,76.56
2023-05-19T10:07:22.359Z,76.66
2023-05-19T10:12:23.838Z,76.41
2023-05-19T10:17:23.520Z,76.16
2023-05-19T10:22:24.019Z,75.82
2023-05-19T10:27:24.951Z,75.52
2023-05-19T10:32:30.113Z,75.19
2023-05-19T10:37:43.325Z,75.03
2023-05-19T10:42:55.117Z,74.80
2023-05-19T10:47:55.984Z,74.53
2023-05-19T10:53:00.396Z,74.28
2023-05-19T10:58:00.990Z,74.06
2023-05-19T11:03:19.042Z,73.42
2023-05-19T11:08:19.060Z,73.03
2023-05-19T11:13:31.424Z,73.08
2023-05-19T11:18:35.073Z,72.98
2023-05-19T11:23:44.089Z,72.38
2023-05-19T11:28:46.799Z,71.88
2023-05-19T11:33:47.444Z,71.59
2023-05-19T11:38:50.911Z,70.91
2023-05-19T11:43:57.568Z,70.43
2023-05-19T11:48:59.383Z,69.45
2023-05-19T11:53:58.612Z,69.70
2023-05-19T11:58:59.380Z,69.83
2023-05-19T12:03:58.516Z,69.64
2023-05-19T12:08:59.291Z,69.59
2023-05-19T12:14:02.527Z,69.37
2023-05-19T12:19:01.829Z,69.08
2023-05-19T12:24:01.761Z,68.59
2023-05-19T12:29:01.787Z,68.16
2023-05-19T12:34:01.864Z,67.92
2023-05-19T12:39:01.135Z,67.92
2023-05-19T12:44:01.324Z,66.90
2023-05-19T12:49:03.941Z,66.96
2023-05-19T12:54:05.990Z,66.72
2023-05-19T12:59:06.550Z,66.67
2023-05-19T13:04:06.657Z,66.69
2023-05-19T13:09:07.348Z,66.70
2023-05-19T13:14:06.374Z,66.82
2023-05-19T13:19:06.350Z,66.84
2023-05-19T13:24:07.364Z,67.06
2023-05-19T13:29:06.628Z,67.08
2023-05-19T13:34:06.020Z,66.67
2023-05-19T13:39:05.499Z,66.75
2023-05-19T13:44:06.123Z,66.89
2023-05-19T13:49:05.246Z,67.12
2023-05-19T13:54:04.704Z,67.20
2023-05-19T13:59:04.224Z,67.18
2023-05-19T14:04:04.418Z,67.10
2023-05-19T14:09:04.569Z,67.24
2023-05-19T14:14:04.257Z,67.14
2023-05-19T14:19:02.908Z,67.13
2023-05-19T14:24:02.351Z,67.27
2023-05-19T14:29:02.592Z,67.57
2023-05-19T14:34:02.697Z,67.66
2023-05-19T14:39:03.230Z,67.80
2023-05-19T14:44:02.491Z,67.87
2023-05-19T14:49:01.598Z,67.98
2023-05-19T14:54:02.428Z,68.11
2023-05-19T14:59:01.465Z,68.30
2023-05-19T15:04:01.791Z,68.36
2023-05-19T15:09:01.713Z,68.51
2023-05-19T15:14:00.891Z,68.54
2023-05-19T15:19:00.465Z,68.65
2023-05-19T15:23:59.690Z,68.63
2023-05-19T15:28:59.792Z,68.78
2023-05-19T15:33:59.810Z,68.84
2023-05-19T15:38:58.449Z,68.96
2023-05-19T15:44:00.561Z,69.00
2023-05-19T15:49:01.053Z,69.09
2023-05-19T15:54:00.835Z,69.25
2023-05-19T15:59:00.259Z,69.51
2023-05-19T16:04:00.877Z,69.61
2023-05-19T16:09:02.471Z,69.76
2023-05-19T16:14:02.956Z,69.94
2023-05-19T16:19:03.282Z,70.15
2023-05-19T16:24:02.886Z,70.37
2023-05-19T16:29:03.074Z,70.57
2023-05-19T16:34:02.498Z,70.79
2023-05-19T16:39:02.114Z,71.08
2023-05-19T16:44:02.517Z,71.31
2023-05-19T16:49:02.390Z,71.69
2023-05-19T16:54:02.925Z,71.81
2023-05-19T16:59:02.703Z,72.25
2023-05-19T17:04:02.424Z,72.19
2023-05-19T17:09:02.055Z,72.31
2023-05-19T17:14:07.924Z,72.65
2023-05-19T17:19:07.998Z,72.66
2023-05-19T17:24:09.198Z,72.86
2023-05-19T17:29:08.409Z,72.97
2023-05-19T17:34:07.487Z,73.26
2023-05-19T17:39:07.601Z,73.71
2023-05-19T17:44:08.002Z,73.83
2023-05-19T17:49:07.569Z,73.88
2023-05-19T17:54:09.607Z,74.46
2023-05-19T17:59:12.427Z,74.74
2023-05-19T18:04:16.137Z,75.01
2023-05-19T18:09:17.961Z,74.80
2023-05-19T18:14:17.045Z,75.17
2023-05-19T18:19:15.814Z,75.14
2023-05-19T18:24:15.371Z,75.31
2023-05-19T18:29:15.973Z,75.50
2023-05-19T18:34:15.332Z,75.52
2023-05-19T18:39:14.715Z,75.71
2023-05-19T18:44:14.568Z,76.50
2023-05-19T18:49:14.164Z,76.35
2023-05-19T18:54:13.670Z,76.75
2023-05-19T18:59:13.000Z,76.97
2023-05-19T19:04:12.264Z,76.93
2023-05-19T19:09:11.204Z,77.00
2023-05-19T19:14:10.508Z,77.12
2023-05-19T19:19:10.137Z,77.13
2023-05-19T19:24:11.054Z,77.52
2023-05-19T19:29:10.143Z,77.73
2023-05-19T19:34:11.420Z,78.09
2023-05-19T19:39:10.892Z,78.24
2023-05-19T19:44:10.596Z,78.22
2023-05-19T19:49:10.013Z,78.13
2023-05-19T19:54:09.711Z,78.63
2023-05-19T19:59:08.771Z,79.19
2023-05-19T20:04:08.833Z,79.46
2023-05-19T20:09:09.261Z,79.19
2023-05-19T20:14:08.422Z,78.86
2023-05-19T20:19:09.315Z,79.15
2023-05-19T20:24:09.430Z,78.83
2023-05-19T20:29:09.333Z,79.30
2023-05-19T20:34:09.149Z,78.61
2023-05-19T20:39:09.814Z,77.49
2023-05-19T20:44:10.600Z,77.42
2023-05-19T20:49:10.509Z,78.61
2023-05-19T20:54:09.864Z,78.79
2023-05-19T20:59:08.898Z,79.40
2023-05-19T21:04:08.018Z,79.41
2023-05-19T21:09:07.133Z,79.59
2023-05-19T21:14:07.783Z,78.90
2023-05-19T21:19:07.887Z,78.64
2023-05-19T21:24:07.375Z,79.17
2023-05-19T21:29:06.592Z,79.71
2023-05-19T21:34:07.669Z,79.28
2023-05-19T21:39:07.489Z,79.66
2023-05-19T21:44:07.510Z,79.75
2023-05-19T21:49:08.612Z,79.67
2023-05-19T21:54:07.929Z,79.63
2023-05-19T21:59:07.589Z,79.74
2023-05-19T22:04:07.360Z,78.98
2023-05-19T22:09:07.489Z,79.46
2023-05-19T22:14:07.096Z,79.24
2023-05-19T22:19:06.759Z,79.48
2023-05-19T22:24:05.738Z,79.78
2023-05-19T22:29:04.864Z,80.30
2023-05-19T22:34:04.271Z,79.99
2023-05-19T22:39:04.258Z,79.91
2023-05-19T22:44:03.424Z,80.20
2023-05-19T22:49:03.416Z,80.44
2023-05-19T22:54:02.880Z,80.16
2023-05-19T22:59:02.194Z,80.10
2023-05-19T23:04:00.738Z,80.03
2023-05-19T23:09:07.882Z,79.56
2023-05-19T23:14:07.602Z,78.82
2023-05-19T23:19:06.943Z,79.74
2023-05-19T23:24:06.697Z,79.48
2023-05-19T23:29:06.395Z,80.00
2023-05-19T23:34:06.131Z,79.97
2023-05-19T23:39:06.599Z,80.10
2023-05-19T23:44:05.920Z,80.25
2023-05-19T23:49:05.855Z,80.27
2023-05-19T23:54:05.018Z,79.95
2023-05-19T23:59:04.202Z,80.03
